Check out our new BloomSky Weather System.

Active alerts


No alerts


Thunder radar  blitzortung!


Rain radar more information rain snow radar


Visit our other weather sites:

Template documentation
and downloads

And another site



Weather Underground History page Text

Daily Summary for November 1, 2017 Units:  English    Metric   Both
« Previous Day
Next Day »
Daily Weekly Monthly Yearly Custom
  High: Low: Average:
Temperature: 81.7 °F 66.6 °F 72.8 °F
Dew Point: 73.6 °F 66.2 °F 69.9 °F
Humidity: 99 % 74 % 91 %
Wind Speed: 11.0 mph 0.0 mph 2.3 mph
Wind Gust: 17.0 mph - -
Wind:- - SSE
Pressure: 29.93 in 29.81 in -
Precipitation: 0.14 in    
Historical Graphs
 
 
Tabular Data for November 1, 2017
Time Temperature Dew Point Pressure Wind Wind Speed Wind Gust Humidity Rainfall Rate (Hourly)
00:00 66.6 °F 66.2 °F 29.93 in Calm   5.0 mph 99 % 0.01 in
00:05 66.6 °F 66.2 °F 29.93 in ESE 1.0 mph 5.0 mph 99 % 0.01 in
00:10 66.6 °F 66.2 °F 29.93 in Calm   3.0 mph 99 % 0.01 in
00:15 66.6 °F 66.2 °F 29.93 in Calm   3.0 mph 99 % 0.01 in
00:20 66.6 °F 66.2 °F 29.93 in Calm   3.0 mph 99 % 0.01 in
00:25 66.6 °F 66.2 °F 29.92 in Calm   3.0 mph 99 % 0.00 in
00:30 66.6 °F 66.2 °F 29.92 in SE 1.0 mph 4.0 mph 99 % 0.00 in
00:35 66.6 °F 66.2 °F 29.92 in East 1.0 mph 4.0 mph 99 % 0.00 in
00:40 66.6 °F 66.2 °F 29.92 in Calm   4.0 mph 99 % 0.00 in
00:45 66.6 °F 66.2 °F 29.92 in Calm   4.0 mph 99 % 0.00 in
00:50 66.6 °F 66.2 °F 29.91 in Calm   4.0 mph 99 % 0.00 in
00:55 66.6 °F 66.2 °F 29.91 in Calm   1.0 mph 99 % 0.00 in
01:00 66.6 °F 66.2 °F 29.91 in Calm   1.0 mph 99 % 0.00 in
01:05 66.6 °F 66.2 °F 29.91 in Calm   1.0 mph 99 % 0.00 in
01:10 66.6 °F 66.2 °F 29.90 in Calm   1.0 mph 99 % 0.00 in
01:15 66.6 °F 66.2 °F 29.90 in SE 1.0 mph 1.0 mph 99 % 0.00 in
01:20 66.7 °F 66.4 °F 29.89 in East 1.0 mph 1.0 mph 99 % 0.00 in
01:25 66.6 °F 66.2 °F 29.90 in Calm   2.0 mph 99 % 0.00 in
01:31 66.6 °F 66.2 °F 29.90 in Calm   2.0 mph 99 % 0.00 in
01:36 66.7 °F 66.4 °F 29.90 in Calm   2.0 mph 99 % 0.00 in
01:41 66.6 °F 66.2 °F 29.90 in Calm   2.0 mph 99 % 0.00 in
01:46 66.6 °F 66.2 °F 29.89 in Calm   2.0 mph 99 % 0.00 in
01:51 66.7 °F 66.4 °F 29.89 in East 1.0 mph 1.0 mph 99 % 0.00 in
01:56 66.7 °F 66.4 °F 29.88 in Calm   2.0 mph 99 % 0.00 in
02:01 66.7 °F 66.4 °F 29.88 in ESE 1.0 mph 3.0 mph 99 % 0.00 in
02:06 66.7 °F 66.4 °F 29.88 in Calm   4.0 mph 99 % 0.00 in
02:11 66.7 °F 66.4 °F 29.88 in Calm   4.0 mph 99 % 0.01 in
02:16 66.7 °F 66.4 °F 29.88 in SE 1.0 mph 4.0 mph 99 % 0.01 in
02:21 66.9 °F 66.6 °F 29.88 in East 1.0 mph 3.0 mph 99 % 0.03 in
02:26 66.9 °F 66.6 °F 29.87 in Calm   3.0 mph 99 % 0.04 in
02:31 66.9 °F 66.6 °F 29.87 in Calm   2.0 mph 99 % 0.04 in
02:36 66.9 °F 66.6 °F 29.87 in SSE 2.0 mph 2.0 mph 99 % 0.04 in
02:41 66.9 °F 66.6 °F 29.88 in SSE 1.0 mph 3.0 mph 99 % 0.04 in
02:46 66.9 °F 66.6 °F 29.88 in Calm   3.0 mph 99 % 0.04 in
02:51 66.9 °F 66.6 °F 29.89 in Calm   3.0 mph 99 % 0.04 in
02:56 67.1 °F 66.7 °F 29.88 in East 2.0 mph 3.0 mph 99 % 0.05 in
03:01 67.3 °F 66.9 °F 29.87 in Calm   3.0 mph 99 % 0.05 in
03:06 67.1 °F 66.7 °F 29.88 in Calm   3.0 mph 99 % 0.05 in
03:11 67.1 °F 66.7 °F 29.88 in Calm   2.0 mph 99 % 0.04 in
03:16 67.1 °F 66.7 °F 29.88 in Calm   2.0 mph 99 % 0.05 in
03:21 67.1 °F 66.7 °F 29.88 in Calm   2.0 mph 99 % 0.05 in
03:26 67.1 °F 66.7 °F 29.87 in SE 2.0 mph 2.0 mph 99 % 0.04 in
03:31 67.3 °F 66.9 °F 29.87 in SE 3.0 mph 3.0 mph 99 % 0.05 in
03:36 67.3 °F 66.9 °F 29.86 in SE 1.0 mph 4.0 mph 99 % 0.07 in
03:41 67.5 °F 67.1 °F 29.86 in SE 2.0 mph 4.0 mph 99 % 0.07 in
03:46 67.5 °F 67.1 °F 29.86 in SE 1.0 mph 4.0 mph 99 % 0.07 in
03:51 67.5 °F 67.1 °F 29.86 in South 1.0 mph 3.0 mph 99 % 0.07 in
03:56 67.5 °F 67.1 °F 29.86 in Calm   2.0 mph 99 % 0.06 in
04:01 67.5 °F 67.1 °F 29.86 in South 2.0 mph 3.0 mph 99 % 0.06 in
04:06 67.5 °F 67.1 °F 29.86 in SE 2.0 mph 4.0 mph 99 % 0.06 in
04:11 67.6 °F 67.3 °F 29.86 in ESE 3.0 mph 4.0 mph 99 % 0.06 in
04:16 67.6 °F 67.3 °F 29.86 in SSE 1.0 mph 4.0 mph 99 % 0.05 in
04:21 67.6 °F 67.3 °F 29.86 in SSE 1.0 mph 4.0 mph 99 % 0.03 in
04:26 67.6 °F 67.3 °F 29.86 in SE 4.0 mph 6.0 mph 99 % 0.04 in
04:31 67.8 °F 67.5 °F 29.86 in South 3.0 mph 6.0 mph 99 % 0.03 in
04:36 67.8 °F 67.5 °F 29.86 in SSE 3.0 mph 6.0 mph 99 % 0.01 in
04:41 67.8 °F 67.5 °F 29.86 in SSE 2.0 mph 6.0 mph 99 % 0.01 in
04:46 67.8 °F 67.5 °F 29.86 in SSE 2.0 mph 6.0 mph 99 % 0.01 in
04:51 67.8 °F 67.5 °F 29.85 in ESE 2.0 mph 8.0 mph 99 % 0.01 in
04:56 67.8 °F 67.5 °F 29.85 in South 2.0 mph 8.0 mph 99 % 0.01 in
05:01 67.8 °F 67.3 °F 29.85 in SE 1.0 mph 8.0 mph 98 % 0.01 in
05:06 67.8 °F 67.3 °F 29.85 in SE 1.0 mph 5.0 mph 98 % 0.01 in
05:11 67.8 °F 67.3 °F 29.85 in SSE 2.0 mph 4.0 mph 98 % 0.01 in
05:16 67.8 °F 67.3 °F 29.85 in SE 2.0 mph 3.0 mph 98 % 0.01 in
05:21 67.8 °F 67.3 °F 29.85 in South 1.0 mph 3.0 mph 98 % 0.01 in
05:26 67.8 °F 67.3 °F 29.85 in Calm   3.0 mph 98 % 0.00 in
05:31 67.8 °F 67.3 °F 29.85 in Calm   3.0 mph 98 % 0.01 in
05:36 67.8 °F 67.3 °F 29.85 in Calm   3.0 mph 98 % 0.01 in
05:41 67.8 °F 67.3 °F 29.85 in SSW 1.0 mph 2.0 mph 98 % 0.01 in
05:42 67.8 °F 67.3 °F 29.85 in Calm   2.0 mph 98 % 0.01 in
05:47 67.8 °F 67.3 °F 29.85 in SSE 1.0 mph 2.0 mph 98 % 0.01 in
05:52 67.8 °F 67.5 °F 29.85 in Calm   2.0 mph 99 % 0.01 in
05:57 67.8 °F 67.5 °F 29.85 in Calm   2.0 mph 99 % 0.02 in
06:02 67.8 °F 67.5 °F 29.86 in Calm   2.0 mph 99 % 0.02 in
06:07 67.8 °F 67.5 °F 29.85 in Calm   2.0 mph 99 % 0.02 in
06:12 67.8 °F 67.5 °F 29.85 in Calm   1.0 mph 99 % 0.02 in
06:17 68.0 °F 67.6 °F 29.85 in SE 2.0 mph 2.0 mph 99 % 0.02 in
06:22 68.0 °F 67.6 °F 29.85 in ESE 1.0 mph 2.0 mph 99 % 0.02 in
06:27 68.0 °F 67.6 °F 29.85 in East 1.0 mph 2.0 mph 99 % 0.02 in
06:32 68.0 °F 67.6 °F 29.85 in Calm   2.0 mph 99 % 0.01 in
06:37 68.0 °F 67.6 °F 29.85 in Calm   2.0 mph 99 % 0.01 in
06:42 68.0 °F 67.6 °F 29.85 in Calm   2.0 mph 99 % 0.01 in
06:52 68.0 °F 67.6 °F 29.85 in Calm   1.0 mph 99 % 0.01 in
06:58 68.2 °F 67.8 °F 29.85 in Calm     99 % 0.00 in
07:03 68.2 °F 67.8 °F 29.86 in Calm   2.0 mph 99 % 0.00 in
07:08 68.2 °F 67.8 °F 29.86 in Calm   2.0 mph 99 % 0.00 in
07:13 68.2 °F 67.8 °F 29.86 in Calm   2.0 mph 99 % 0.00 in
07:18 68.0 °F 67.6 °F 29.86 in Calm   2.0 mph 99 % 0.00 in
07:19 68.0 °F 67.6 °F 29.86 in Calm   2.0 mph 99 % 0.00 in
07:24 68.0 °F 67.6 °F 29.86 in Calm   2.0 mph 99 % 0.00 in
07:29 68.0 °F 67.6 °F 29.86 in Calm   1.0 mph 99 % 0.00 in
07:34 68.0 °F 67.6 °F 29.87 in Calm   1.0 mph 99 % 0.00 in
07:39 68.0 °F 67.6 °F 29.87 in Calm   1.0 mph 99 % 0.00 in
07:44 68.2 °F 67.8 °F 29.87 in Calm     99 % 0.00 in
07:49 68.2 °F 67.8 °F 29.87 in Calm     99 % 0.00 in
07:54 68.2 °F 67.8 °F 29.87 in Calm     99 % 0.00 in
07:59 68.2 °F 67.8 °F 29.87 in Calm     99 % 0.00 in
08:04 68.2 °F 67.8 °F 29.87 in Calm     99 % 0.00 in
08:09 68.2 °F 67.8 °F 29.87 in Calm     99 % 0.00 in
08:14 68.4 °F 68.0 °F 29.88 in SSW 2.0 mph   99 % 0.00 in
08:19 68.4 °F 68.0 °F 29.88 in Calm   3.0 mph 99 % 0.00 in
08:24 68.4 °F 68.0 °F 29.88 in Calm   3.0 mph 99 % 0.00 in
08:29 68.4 °F 68.0 °F 29.88 in Calm   3.0 mph 99 % 0.00 in
08:34 68.5 °F 68.2 °F 29.88 in Calm   1.0 mph 99 % 0.00 in
08:39 68.5 °F 68.2 °F 29.89 in Calm   1.0 mph 99 % 0.00 in
08:44 68.5 °F 68.2 °F 29.89 in Calm   1.0 mph 99 % 0.00 in
08:49 68.7 °F 68.4 °F 29.89 in Calm   1.0 mph 99 % 0.00 in
08:54 68.7 °F 68.4 °F 29.89 in Calm   1.0 mph 99 % 0.00 in
08:59 68.7 °F 68.4 °F 29.89 in Calm   1.0 mph 99 % 0.00 in
09:04 68.9 °F 68.5 °F 29.90 in Calm   1.0 mph 99 % 0.00 in
09:09 68.9 °F 68.5 °F 29.90 in Calm   1.0 mph 99 % 0.00 in
09:14 68.9 °F 68.5 °F 29.90 in Calm   1.0 mph 99 % 0.00 in
09:19 68.9 °F 68.5 °F 29.91 in Calm   1.0 mph 99 % 0.00 in
09:24 68.7 °F 68.4 °F 29.91 in WSW 1.0 mph 2.0 mph 99 % 0.00 in
09:29 68.7 °F 68.4 °F 29.91 in Calm   2.0 mph 99 % 0.00 in
09:34 68.5 °F 68.2 °F 29.91 in Calm   2.0 mph 99 % 0.00 in
09:39 68.5 °F 68.2 °F 29.91 in Calm   2.0 mph 99 % 0.00 in
09:44 68.5 °F 68.2 °F 29.91 in Calm   2.0 mph 99 % 0.00 in
09:49 68.5 °F 68.2 °F 29.91 in SSW 1.0 mph 2.0 mph 99 % 0.00 in
09:54 68.7 °F 68.4 °F 29.91 in Calm   2.0 mph 99 % 0.00 in
09:59 68.7 °F 68.4 °F 29.91 in Calm   2.0 mph 99 % 0.00 in
10:04 68.9 °F 68.5 °F 29.91 in SSW 1.0 mph 3.0 mph 99 % 0.00 in
10:09 69.1 °F 68.7 °F 29.91 in Calm   3.0 mph 99 % 0.00 in
10:14 69.1 °F 68.7 °F 29.91 in Calm   3.0 mph 99 % 0.00 in
10:19 69.3 °F 68.9 °F 29.91 in SSW 1.0 mph 1.0 mph 99 % 0.00 in
10:24 69.3 °F 68.7 °F 29.91 in Calm   3.0 mph 98 % 0.00 in
10:29 69.3 °F 68.7 °F 29.91 in Calm   3.0 mph 98 % 0.00 in
10:34 69.4 °F 68.9 °F 29.91 in SSW 2.0 mph 3.0 mph 98 % 0.00 in
10:39 69.6 °F 69.1 °F 29.91 in Calm   3.0 mph 98 % 0.00 in
10:44 69.6 °F 68.7 °F 29.91 in SSW 2.0 mph 5.0 mph 97 % 0.00 in
10:49 69.8 °F 68.9 °F 29.91 in SSW 1.0 mph 5.0 mph 97 % 0.00 in
10:54 70.2 °F 69.3 °F 29.91 in Calm   7.0 mph 97 % 0.00 in
10:59 70.3 °F 69.4 °F 29.91 in SSW 1.0 mph 7.0 mph 97 % 0.00 in
11:05 70.5 °F 69.6 °F 29.91 in SW 2.0 mph 7.0 mph 97 % 0.00 in
11:10 71.1 °F 69.8 °F 29.91 in Calm   6.0 mph 96 % 0.00 in
11:15 71.4 °F 70.5 °F 29.91 in West 1.0 mph 7.0 mph 97 % 0.00 in
11:20 72.0 °F 70.5 °F 29.91 in ESE 1.0 mph 7.0 mph 95 % 0.00 in
11:25 72.0 °F 70.2 °F 29.91 in South 4.0 mph 7.0 mph 94 % 0.00 in
11:30 72.3 °F 70.9 °F 29.91 in SW 2.0 mph 6.0 mph 95 % 0.00 in
11:35 72.9 °F 71.1 °F 29.91 in SSE 5.0 mph 8.0 mph 94 % 0.00 in
11:40 73.2 °F 71.1 °F 29.90 in SSW 2.0 mph 8.0 mph 93 % 0.00 in
11:45 73.8 °F 71.6 °F 29.90 in Calm   6.0 mph 93 % 0.00 in
11:50 74.8 °F 72.3 °F 29.90 in SSE 1.0 mph 6.0 mph 92 % 0.00 in
11:55 75.7 °F 72.9 °F 29.89 in SSW 1.0 mph 6.0 mph 91 % 0.00 in
12:00 76.6 °F 73.2 °F 29.89 in SW 4.0 mph 6.0 mph 89 % 0.00 in
12:05 77.4 °F 73.6 °F 29.89 in South 6.0 mph 7.0 mph 88 % 0.00 in
12:10 77.9 °F 73.0 °F 29.89 in South 3.0 mph 7.0 mph 85 % 0.00 in
12:15 78.4 °F 73.2 °F 29.89 in SSE 8.0 mph 8.0 mph 84 % 0.00 in
12:20 78.4 °F 72.5 °F 29.89 in South 4.0 mph 10.0 mph 82 % 0.00 in
12:25 78.6 °F 73.4 °F 29.89 in SSW 3.0 mph 10.0 mph 84 % 0.00 in
12:30 79.2 °F 72.5 °F 29.89 in SSE 6.0 mph 13.0 mph 80 % 0.00 in
12:35 79.0 °F 72.3 °F 29.88 in SSW 5.0 mph 13.0 mph 80 % 0.00 in
12:40 78.6 °F 72.3 °F 29.88 in South 2.0 mph 13.0 mph 81 % 0.00 in
12:45 78.6 °F 72.3 °F 29.88 in Calm   9.0 mph 81 % 0.00 in
12:50 78.3 °F 72.0 °F 29.88 in SSW 4.0 mph 12.0 mph 81 % 0.00 in
12:55 78.3 °F 72.3 °F 29.88 in SW 3.0 mph 12.0 mph 82 % 0.00 in
13:00 78.6 °F 72.3 °F 29.88 in SSE 10.0 mph 12.0 mph 81 % 0.00 in
13:05 78.1 °F 71.1 °F 29.87 in SSW 7.0 mph 12.0 mph 79 % 0.00 in
13:10 78.3 °F 72.3 °F 29.87 in SSW 2.0 mph 12.0 mph 82 % 0.00 in
13:15 78.6 °F 72.0 °F 29.87 in SSW 3.0 mph 12.0 mph 80 % 0.00 in
13:20 78.4 °F 72.1 °F 29.87 in South 2.0 mph 11.0 mph 81 % 0.00 in
13:25 78.8 °F 72.1 °F 29.86 in SSE 4.0 mph 11.0 mph 80 % 0.00 in
13:30 79.0 °F 72.3 °F 29.86 in SSE 3.0 mph 11.0 mph 80 % 0.00 in
13:35 79.3 °F 72.7 °F 29.86 in SSW 4.0 mph 11.0 mph 80 % 0.00 in
13:40 80.1 °F 72.5 °F 29.86 in South 1.0 mph 10.0 mph 78 % 0.00 in
13:45 80.2 °F 72.7 °F 29.85 in SW 4.0 mph 10.0 mph 78 % 0.00 in
13:50 80.6 °F 72.0 °F 29.85 in SW 5.0 mph 10.0 mph 75 % 0.00 in
13:55 80.8 °F 72.5 °F 29.85 in SSW 2.0 mph 10.0 mph 76 % 0.00 in
14:00 81.1 °F 72.5 °F 29.84 in SSE 1.0 mph 10.0 mph 75 % 0.00 in
14:06 81.7 °F 72.5 °F 29.84 in SSW 10.0 mph 11.0 mph 74 % 0.00 in
14:11 81.3 °F 72.7 °F 29.84 in SW 4.0 mph 17.0 mph 75 % 0.00 in
14:16 81.3 °F 72.7 °F 29.84 in SSE 7.0 mph 17.0 mph 75 % 0.00 in
14:21 81.3 °F 73.0 °F 29.84 in South 7.0 mph 17.0 mph 76 % 0.00 in
14:26 81.5 °F 73.2 °F 29.84 in West 2.0 mph 12.0 mph 76 % 0.00 in
14:31 81.3 °F 72.7 °F 29.83 in SSW 7.0 mph 14.0 mph 75 % 0.00 in
14:36 81.1 °F 72.9 °F 29.83 in South 7.0 mph 14.0 mph 76 % 0.00 in
14:41 81.0 °F 72.7 °F 29.83 in SSW 5.0 mph 14.0 mph 76 % 0.00 in
14:46 81.0 °F 72.7 °F 29.83 in SSW 6.0 mph 12.0 mph 76 % 0.00 in
14:51 81.1 °F 72.9 °F 29.83 in South 4.0 mph 15.0 mph 76 % 0.00 in
14:56 81.0 °F 72.7 °F 29.83 in SE 3.0 mph 15.0 mph 76 % 0.00 in
15:01 80.4 °F 72.5 °F 29.83 in SE 6.0 mph 15.0 mph 77 % 0.00 in
15:04 80.2 °F 72.7 °F 29.83 in SSW 7.0 mph 15.0 mph 78 % 0.00 in
15:09 79.9 °F 72.3 °F 29.83 in SSE 6.0 mph 11.0 mph 78 % 0.00 in
15:14 79.9 °F 72.3 °F 29.83 in SSE 9.0 mph 12.0 mph 78 % 0.00 in
15:19 79.9 °F 72.3 °F 29.82 in SSW 11.0 mph 15.0 mph 78 % 0.00 in
15:24 80.1 °F 72.1 °F 29.82 in South 8.0 mph 15.0 mph 77 % 0.00 in
15:29 80.2 °F 72.0 °F 29.82 in South 7.0 mph 15.0 mph 76 % 0.00 in
15:34 80.1 °F 72.1 °F 29.82 in SSE 10.0 mph 12.0 mph 77 % 0.00 in
15:39 79.9 °F 72.0 °F 29.82 in South 2.0 mph 12.0 mph 77 % 0.00 in
15:44 80.2 °F 72.3 °F 29.82 in SE 9.0 mph 16.0 mph 77 % 0.00 in
15:49 80.2 °F 72.3 °F 29.82 in ESE 1.0 mph 16.0 mph 77 % 0.00 in
15:54 80.4 °F 72.9 °F 29.82 in South 3.0 mph 16.0 mph 78 % 0.00 in
15:59 80.8 °F 72.5 °F 29.81 in SSE 4.0 mph 11.0 mph 76 % 0.00 in
16:04 80.6 °F 72.7 °F 29.81 in SSW 7.0 mph 9.0 mph 77 % 0.00 in
16:09 80.2 °F 72.0 °F 29.81 in South 7.0 mph 11.0 mph 76 % 0.00 in
16:14 79.9 °F 72.0 °F 29.81 in SSW 3.0 mph 11.0 mph 77 % 0.00 in
16:19 79.9 °F 72.3 °F 29.81 in East 9.0 mph 12.0 mph 78 % 0.00 in
16:24 79.5 °F 72.5 °F 29.81 in SE 9.0 mph 12.0 mph 79 % 0.00 in
16:29 79.5 °F 72.1 °F 29.81 in SSE 5.0 mph 12.0 mph 78 % 0.00 in
16:34 79.7 °F 72.1 °F 29.81 in SSE 3.0 mph 11.0 mph 78 % 0.00 in
16:39 79.7 °F 72.1 °F 29.81 in SSE 3.0 mph 12.0 mph 78 % 0.00 in
16:44 79.9 °F 72.3 °F 29.81 in SSW 5.0 mph 13.0 mph 78 % 0.00 in
16:49 79.9 °F 72.3 °F 29.81 in South 4.0 mph 13.0 mph 78 % 0.00 in
16:54 79.5 °F 71.6 °F 29.81 in SSW 4.0 mph 13.0 mph 77 % 0.00 in
16:55 79.5 °F 71.6 °F 29.81 in SSW 5.0 mph 11.0 mph 77 % 0.00 in
17:00 79.2 °F 71.8 °F 29.81 in SSE 5.0 mph 11.0 mph 78 % 0.00 in
17:05 79.0 °F 72.0 °F 29.81 in WNW 1.0 mph 11.0 mph 79 % 0.00 in
17:10 79.0 °F 72.0 °F 29.81 in SSW 9.0 mph 10.0 mph 79 % 0.00 in
17:15 78.8 °F 72.1 °F 29.81 in SE 5.0 mph 10.0 mph 80 % 0.00 in
17:20 78.8 °F 72.1 °F 29.81 in South 6.0 mph 9.0 mph 80 % 0.00 in
17:25 78.6 °F 72.0 °F 29.81 in SSW 1.0 mph 11.0 mph 80 % 0.00 in
17:30 78.4 °F 71.8 °F 29.81 in SW 4.0 mph 11.0 mph 80 % 0.00 in
17:35 78.4 °F 72.1 °F 29.81 in South 3.0 mph 11.0 mph 81 % 0.00 in
17:40 78.4 °F 72.1 °F 29.81 in SSE 2.0 mph 7.0 mph 81 % 0.00 in
17:45 78.3 °F 72.0 °F 29.81 in South 5.0 mph 7.0 mph 81 % 0.00 in
17:50 78.1 °F 71.8 °F 29.81 in SSW 4.0 mph 7.0 mph 81 % 0.00 in
17:55 77.9 °F 72.0 °F 29.81 in South 4.0 mph 7.0 mph 82 % 0.00 in
18:00 77.7 °F 71.8 °F 29.81 in SE 3.0 mph 7.0 mph 82 % 0.00 in
18:05 77.7 °F 71.8 °F 29.81 in SSW 6.0 mph 7.0 mph 82 % 0.00 in
18:10 77.7 °F 71.8 °F 29.81 in SSE 5.0 mph 11.0 mph 82 % 0.00 in
18:15 77.5 °F 71.6 °F 29.81 in SSW 3.0 mph 11.0 mph 82 % 0.00 in
18:20 77.4 °F 71.8 °F 29.81 in South 1.0 mph 11.0 mph 83 % 0.00 in
18:25 77.2 °F 71.6 °F 29.81 in SSE 2.0 mph 9.0 mph 83 % 0.00 in
18:30 77.0 °F 71.8 °F 29.81 in ESE 3.0 mph 7.0 mph 84 % 0.00 in
18:35 76.6 °F 71.8 °F 29.81 in SSE 2.0 mph 5.0 mph 85 % 0.00 in
18:40 76.6 °F 71.8 °F 29.81 in SSE 2.0 mph 5.0 mph 85 % 0.00 in
18:45 76.5 °F 71.6 °F 29.82 in SSE 2.0 mph 5.0 mph 85 % 0.00 in
18:50 76.5 °F 72.0 °F 29.82 in South 2.0 mph 6.0 mph 86 % 0.00 in
18:55 76.3 °F 71.8 °F 29.82 in SE 1.0 mph 6.0 mph 86 % 0.00 in
19:00 76.1 °F 71.6 °F 29.82 in SSE 2.0 mph 6.0 mph 86 % 0.00 in
19:05 75.9 °F 71.8 °F 29.82 in SSW 2.0 mph 3.0 mph 87 % 0.00 in
19:10 75.7 °F 71.6 °F 29.82 in SE 1.0 mph 3.0 mph 87 % 0.00 in
19:15 75.6 °F 71.8 °F 29.82 in South 2.0 mph 3.0 mph 88 % 0.00 in
19:20 75.6 °F 71.8 °F 29.82 in SSE 2.0 mph 3.0 mph 88 % 0.00 in
19:25 75.4 °F 71.6 °F 29.82 in South 1.0 mph 3.0 mph 88 % 0.00 in
19:30 75.2 °F 71.8 °F 29.83 in SSE 2.0 mph 3.0 mph 89 % 0.00 in
19:35 75.0 °F 71.6 °F 29.83 in SE 2.0 mph 3.0 mph 89 % 0.00 in
19:40 75.0 °F 71.6 °F 29.83 in SSE 1.0 mph 3.0 mph 89 % 0.00 in
19:46 74.8 °F 71.4 °F 29.83 in SSE 1.0 mph 3.0 mph 89 % 0.00 in
19:51 74.8 °F 71.8 °F 29.83 in SSE 3.0 mph 3.0 mph 90 % 0.00 in
19:56 74.7 °F 71.6 °F 29.83 in SSE 1.0 mph 3.0 mph 90 % 0.00 in
20:01 74.7 °F 71.6 °F 29.83 in South 2.0 mph 4.0 mph 90 % 0.00 in
20:06 74.8 °F 71.8 °F 29.83 in SE 4.0 mph 8.0 mph 90 % 0.00 in
20:11 75.0 °F 72.0 °F 29.83 in SSE 1.0 mph 8.0 mph 90 % 0.00 in
20:16 75.0 °F 72.0 °F 29.83 in SSE 3.0 mph 8.0 mph 90 % 0.00 in
20:21 75.0 °F 72.0 °F 29.84 in SSE 2.0 mph 6.0 mph 90 % 0.00 in
20:26 75.0 °F 72.0 °F 29.84 in South 3.0 mph 6.0 mph 90 % 0.00 in
20:31 75.0 °F 72.0 °F 29.83 in SSE 4.0 mph 6.0 mph 90 % 0.00 in
20:36 74.8 °F 71.8 °F 29.84 in SSE 4.0 mph 4.0 mph 90 % 0.00 in
20:41 74.8 °F 72.0 °F 29.84 in South 2.0 mph 6.0 mph 91 % 0.00 in
20:46 74.8 °F 72.0 °F 29.84 in SE 5.0 mph 6.0 mph 91 % 0.00 in
20:51 74.8 °F 72.0 °F 29.84 in SE 3.0 mph 7.0 mph 91 % 0.00 in
20:56 74.8 °F 72.0 °F 29.84 in South 4.0 mph 7.0 mph 91 % 0.00 in
21:01 74.7 °F 71.8 °F 29.84 in SSE 2.0 mph 7.0 mph 91 % 0.00 in
21:06 74.7 °F 71.8 °F 29.85 in SSE 3.0 mph 6.0 mph 91 % 0.00 in
21:11 74.7 °F 71.8 °F 29.85 in SSE 5.0 mph 6.0 mph 91 % 0.00 in
21:16 74.8 °F 72.0 °F 29.85 in South 1.0 mph 7.0 mph 91 % 0.00 in
21:21 74.7 °F 71.8 °F 29.85 in Calm   7.0 mph 91 % 0.00 in
21:26 74.7 °F 71.8 °F 29.86 in East 5.0 mph 7.0 mph 91 % 0.00 in
21:31 74.5 °F 71.6 °F 29.86 in SSE 1.0 mph 7.0 mph 91 % 0.00 in
21:36 74.5 °F 71.6 °F 29.86 in ESE 4.0 mph 7.0 mph 91 % 0.00 in
21:41 74.5 °F 71.6 °F 29.86 in SE 4.0 mph 7.0 mph 91 % 0.00 in
21:46 74.5 °F 72.0 °F 29.86 in SSE 4.0 mph 7.0 mph 92 % 0.00 in
21:51 74.5 °F 72.0 °F 29.86 in SSE 3.0 mph 7.0 mph 92 % 0.00 in
21:56 74.5 °F 72.0 °F 29.87 in SE 2.0 mph 7.0 mph 92 % 0.00 in
22:01 74.5 °F 72.0 °F 29.87 in South 2.0 mph 9.0 mph 92 % 0.00 in
22:06 74.5 °F 72.0 °F 29.87 in SSW 4.0 mph 9.0 mph 92 % 0.00 in
22:11 74.5 °F 72.0 °F 29.87 in SSE 5.0 mph 9.0 mph 92 % 0.00 in
22:16 74.5 °F 72.0 °F 29.87 in South 2.0 mph 8.0 mph 92 % 0.00 in
22:21 74.5 °F 72.0 °F 29.87 in SSE 3.0 mph 8.0 mph 92 % 0.00 in
22:22 74.3 °F 71.8 °F 29.87 in SSE 5.0 mph 8.0 mph 92 % 0.00 in
22:27 74.3 °F 72.1 °F 29.87 in SSW 3.0 mph 8.0 mph 93 % 0.00 in
22:32 74.1 °F 72.0 °F 29.88 in SE 3.0 mph 8.0 mph 93 % 0.00 in
22:37 74.1 °F 72.0 °F 29.88 in SE 4.0 mph 7.0 mph 93 % 0.00 in
22:42 74.1 °F 72.0 °F 29.88 in ESE 3.0 mph 7.0 mph 93 % 0.00 in
22:47 74.1 °F 72.3 °F 29.88 in SSE 4.0 mph 6.0 mph 94 % 0.00 in
22:52 74.1 °F 72.3 °F 29.88 in SSE 3.0 mph 6.0 mph 94 % 0.00 in
22:57 74.1 °F 72.3 °F 29.88 in SSE 2.0 mph 7.0 mph 94 % 0.00 in
23:02 74.3 °F 72.5 °F 29.88 in SE 3.0 mph 7.0 mph 94 % 0.00 in
23:07 74.3 °F 72.5 °F 29.88 in SSW 6.0 mph 7.0 mph 94 % 0.00 in
23:12 74.5 °F 72.7 °F 29.89 in SSE 4.0 mph 8.0 mph 94 % 0.00 in
23:17 74.5 °F 72.7 °F 29.89 in SSE 6.0 mph 8.0 mph 94 % 0.00 in
23:22 74.5 °F 72.7 °F 29.89 in SSW 5.0 mph 8.0 mph 94 % 0.00 in
23:27 74.5 °F 72.7 °F 29.89 in SSE 4.0 mph 7.0 mph 94 % 0.00 in
23:32 74.5 °F 73.0 °F 29.89 in SSE 3.0 mph 7.0 mph 95 % 0.00 in
23:37 74.5 °F 73.0 °F 29.89 in SSE 3.0 mph 7.0 mph 95 % 0.00 in
23:42 74.5 °F 73.0 °F 29.89 in South 5.0 mph 7.0 mph 95 % 0.00 in
23:47 74.3 °F 72.9 °F 29.89 in SSE 2.0 mph 7.0 mph 95 % 0.00 in
23:52 74.3 °F 72.9 °F 29.89 in ESE 2.0 mph 6.0 mph 95 % 0.00 in
23:57 74.1 °F 72.7 °F 29.89 in SSE 3.0 mph 6.0 mph 95 % 0.00 in
Spring, Texas: Villages of Bridgestone
Compliments of Weather Underground - 2.75 mb

Script developed by  Jim McMurry - jmcmurry@mwt.net Adapted for the template by  Wim van der Kuil - Leuven-Template.eu

You find our weather info also at:

UK Metoffice

WeatherCloud

Weather Underground

Mid-South Weather Network

AWEKAS

Citizen Weather Observer Program (CWOP)

HAMweather, WeatherForYou, PWS Weather

Equipment we use:

Weather-station
Davis Vantage Vue

Weather-program
Meteohub

Weather-server
Debian 7.9 x86 (Guest)

Provider
DreamHost

Davis Vantage Vue

Meteohub

Debian 7.9 x86 (Guest)

DreamHost